createdAt,value
2023-05-19T00:01:31.178Z,8.93
2023-05-19T00:04:33.861Z,8.50
2023-05-19T00:07:38.747Z,9.20
2023-05-19T00:10:41.341Z,8.75
2023-05-19T00:13:48.359Z,8.63
2023-05-19T00:16:50.775Z,10.05
2023-05-19T00:19:54.866Z,8.05
2023-05-19T00:22:58.068Z,9.30
2023-05-19T00:25:59.896Z,9.10
2023-05-19T00:29:02.515Z,10.00
2023-05-19T00:32:05.178Z,8.98
2023-05-19T00:35:08.422Z,9.23
2023-05-19T00:38:11.588Z,8.50
2023-05-19T00:41:14.608Z,10.10
2023-05-19T00:44:16.426Z,9.18
2023-05-19T00:47:18.474Z,8.63
2023-05-19T00:50:22.838Z,10.02
2023-05-19T00:53:26.386Z,10.02
2023-05-19T00:56:28.603Z,10.07
2023-05-19T00:59:30.589Z,9.25
2023-05-19T01:02:32.763Z,9.30
2023-05-19T01:05:34.726Z,9.10
2023-05-19T01:08:38.346Z,9.50
2023-05-19T01:11:40.438Z,8.98
2023-05-19T01:14:42.625Z,9.52
2023-05-19T01:17:50.315Z,8.73
2023-05-19T01:21:03.794Z,10.32
2023-05-19T01:24:23.397Z,10.32
2023-05-19T01:27:51.234Z,9.80
2023-05-19T01:30:55.799Z,11.57
2023-05-19T01:33:59.443Z,9.85
2023-05-19T01:37:01.852Z,9.73
2023-05-19T01:40:04.220Z,11.10
2023-05-19T01:43:08.071Z,9.77
2023-05-19T01:46:12.136Z,9.85
2023-05-19T01:49:14.568Z,9.65
2023-05-19T01:52:16.421Z,10.35
2023-05-19T01:55:19.744Z,9.73
2023-05-19T01:58:31.321Z,9.48
2023-05-19T02:01:41.553Z,10.57
2023-05-19T02:04:50.977Z,10.13
2023-05-19T02:07:58.728Z,10.40
2023-05-19T02:11:09.912Z,10.50
2023-05-19T02:14:16.192Z,10.98
2023-05-19T02:17:20.872Z,10.98
2023-05-19T02:20:22.793Z,10.43
2023-05-19T02:23:25.409Z,11.43
2023-05-19T02:26:27.352Z,10.93
2023-05-19T02:29:30.147Z,10.30
2023-05-19T02:32:33.516Z,11.93
2023-05-19T02:35:40.894Z,12.52
2023-05-19T02:38:42.750Z,11.25
2023-05-19T02:41:45.123Z,11.20
2023-05-19T02:44:47.014Z,11.38
2023-05-19T02:47:50.365Z,11.05
2023-05-19T02:50:53.129Z,10.65
2023-05-19T02:53:54.928Z,10.63
2023-05-19T02:56:57.453Z,10.93
2023-05-19T03:00:00.297Z,10.77
2023-05-19T03:03:04.729Z,11.18
2023-05-19T03:06:08.834Z,11.57
2023-05-19T03:09:10.691Z,11.75
2023-05-19T03:12:13.151Z,10.98
2023-05-19T03:15:15.180Z,12.20
2023-05-19T03:18:18.453Z,11.35
2023-05-19T03:21:21.038Z,10.80
2023-05-19T03:24:22.947Z,11.73
2023-05-19T03:27:24.812Z,9.73
2023-05-19T03:30:27.027Z,11.13
2023-05-19T03:33:30.587Z,11.70
2023-05-19T03:36:32.523Z,12.07
2023-05-19T03:39:34.354Z,11.23
2023-05-19T03:42:36.224Z,11.05
2023-05-19T03:45:38.123Z,12.13
2023-05-19T03:48:42.318Z,11.32
2023-05-19T03:51:44.431Z,11.82
2023-05-19T03:54:46.264Z,11.98
2023-05-19T03:57:49.013Z,11.68
2023-05-19T04:00:51.135Z,12.50
2023-05-19T04:03:55.448Z,12.45
2023-05-19T04:06:58.002Z,12.45
2023-05-19T04:10:00.066Z,12.40
2023-05-19T04:13:01.935Z,13.15
2023-05-19T04:16:04.612Z,12.48
2023-05-19T04:19:07.996Z,12.80
2023-05-19T04:22:09.884Z,11.68
2023-05-19T04:25:12.049Z,12.15
2023-05-19T04:28:13.935Z,12.85
2023-05-19T04:31:15.888Z,11.93
2023-05-19T04:34:20.134Z,12.25
2023-05-19T04:37:22.344Z,12.50
2023-05-19T04:40:24.299Z,13.82
2023-05-19T04:43:28.385Z,12.27
2023-05-19T04:46:30.478Z,12.38
2023-05-19T04:49:38.779Z,12.15
2023-05-19T04:52:41.894Z,12.05
2023-05-19T04:55:44.219Z,12.18
2023-05-19T04:58:46.840Z,13.50
2023-05-19T05:01:48.794Z,11.68
2023-05-19T05:04:54.640Z,13.32
2023-05-19T05:07:56.491Z,13.25
2023-05-19T05:10:59.555Z,12.32
2023-05-19T05:14:01.973Z,11.52
2023-05-19T05:17:05.436Z,12.25
2023-05-19T05:20:11.534Z,12.82
2023-05-19T05:23:17.029Z,13.75
2023-05-19T05:29:25.284Z,13.50
2023-05-19T05:32:27.257Z,12.95
2023-05-19T05:35:30.845Z,14.15
2023-05-19T05:38:33.079Z,13.35
2023-05-19T05:41:37.628Z,13.77
2023-05-19T05:44:39.703Z,13.10
2023-05-19T05:47:42.225Z,11.68
2023-05-19T05:50:46.085Z,11.10
2023-05-19T05:53:52.550Z,12.30
2023-05-19T05:56:55.148Z,12.77
2023-05-19T05:59:57.767Z,11.25
2023-05-19T06:02:59.985Z,15.10
2023-05-19T06:06:03.526Z,16.35
2023-05-19T06:09:05.758Z,15.90
2023-05-19T06:12:08.188Z,17.02
2023-05-19T06:15:10.972Z,15.63
2023-05-19T06:18:12.826Z,17.67
2023-05-19T06:21:17.700Z,16.42
2023-05-19T06:24:19.545Z,17.92
2023-05-19T06:27:21.621Z,17.42
2023-05-19T06:30:23.435Z,16.90
2023-05-19T06:33:28.847Z,11.77
2023-05-19T06:36:32.497Z,11.80
2023-05-19T06:39:34.422Z,10.18
2023-05-19T06:42:36.321Z,10.38
2023-05-19T06:45:38.123Z,10.30
2023-05-19T06:48:40.010Z,9.18
2023-05-19T06:51:43.299Z,9.20
2023-05-19T06:54:45.198Z,8.20
2023-05-19T06:57:47.023Z,9.15
2023-05-19T07:00:48.950Z,9.23
2023-05-19T07:03:50.907Z,10.05
2023-05-19T07:06:55.089Z,10.75
2023-05-19T07:09:57.014Z,12.93
2023-05-19T07:12:59.518Z,11.25
2023-05-19T07:16:01.525Z,11.85
2023-05-19T07:19:03.503Z,10.48
2023-05-19T07:22:06.844Z,10.52
2023-05-19T07:25:10.122Z,10.23
2023-05-19T07:28:12.005Z,10.88
2023-05-19T07:31:14.500Z,10.05
2023-05-19T07:34:16.572Z,12.13
2023-05-19T07:37:19.791Z,10.00
2023-05-19T07:40:21.741Z,8.73
2023-05-19T07:43:23.590Z,10.20
2023-05-19T07:46:26.670Z,9.38
2023-05-19T07:49:28.677Z,11.45
2023-05-19T07:52:31.916Z,10.45
2023-05-19T07:55:34.405Z,11.57
2023-05-19T07:58:36.279Z,9.63
2023-05-19T08:01:38.451Z,9.77
2023-05-19T08:04:40.362Z,10.13
2023-05-19T08:07:43.786Z,10.77
2023-05-19T08:10:46.492Z,10.00
2023-05-19T08:13:51.123Z,9.35
2023-05-19T08:16:53.402Z,9.52
2023-05-19T08:19:55.397Z,11.23
2023-05-19T08:22:58.776Z,10.15
2023-05-19T08:26:00.773Z,9.80
2023-05-19T08:29:03.268Z,8.93
2023-05-19T08:32:05.788Z,10.40
2023-05-19T08:35:08.784Z,9.35
2023-05-19T08:38:12.715Z,8.15
2023-05-19T08:41:14.569Z,7.47
2023-05-19T08:44:19.026Z,8.05
2023-05-19T08:47:21.227Z,8.65
2023-05-19T08:50:30.703Z,9.15
2023-05-19T08:53:37.922Z,9.90
2023-05-19T08:56:40.525Z,10.60
2023-05-19T08:59:43.883Z,8.25
2023-05-19T09:02:59.803Z,7.88
2023-05-19T09:06:14.502Z,8.68
2023-05-19T09:09:17.743Z,9.18
2023-05-19T09:12:21.109Z,7.53
2023-05-19T09:15:27.204Z,7.65
2023-05-19T09:18:29.796Z,8.32
2023-05-19T09:21:32.569Z,8.30
2023-05-19T09:24:36.172Z,9.57
2023-05-19T09:27:38.198Z,7.53
2023-05-19T09:30:40.077Z,8.07
2023-05-19T09:33:45.860Z,8.77
2023-05-19T09:36:54.719Z,9.45
2023-05-19T09:39:58.485Z,8.55
2023-05-19T09:43:07.921Z,8.52
2023-05-19T09:46:14.720Z,8.38
2023-05-19T09:49:21.730Z,8.02
2023-05-19T09:52:23.616Z,8.35
2023-05-19T09:55:29.096Z,7.97
2023-05-19T09:58:31.990Z,8.32
2023-05-19T10:01:36.419Z,8.45
2023-05-19T10:04:38.710Z,8.30
2023-05-19T10:07:41.419Z,8.55
2023-05-19T10:10:45.908Z,9.88
2023-05-19T10:13:51.334Z,7.18
2023-05-19T10:16:54.752Z,8.25
2023-05-19T10:19:58.824Z,8.70
2023-05-19T10:23:00.837Z,8.77
2023-05-19T10:26:06.908Z,8.48
2023-05-19T10:29:09.076Z,8.80
2023-05-19T10:32:23.358Z,9.10
2023-05-19T10:36:00.771Z,8.20
2023-05-19T10:39:06.603Z,8.80
2023-05-19T10:42:16.130Z,9.20
2023-05-19T10:45:21.143Z,8.30
2023-05-19T10:48:24.190Z,8.80
2023-05-19T10:51:32.599Z,8.88
2023-05-19T10:54:46.280Z,8.85
2023-05-19T10:57:58.612Z,7.95
2023-05-19T11:01:01.652Z,8.73
2023-05-19T11:04:09.167Z,8.90
2023-05-19T11:07:11.118Z,7.68
2023-05-19T11:10:14.092Z,7.88
2023-05-19T11:13:24.011Z,7.40
2023-05-19T11:16:30.138Z,7.45
2023-05-19T11:19:34.641Z,8.05
2023-05-19T11:22:37.146Z,7.60
2023-05-19T11:25:46.957Z,7.50
2023-05-19T11:28:52.120Z,7.97
2023-05-19T11:31:54.597Z,8.48
2023-05-19T11:34:57.962Z,7.68
2023-05-19T11:37:59.978Z,6.82
2023-05-19T11:41:01.996Z,7.03
2023-05-19T11:44:10.134Z,7.93
2023-05-19T11:47:13.437Z,7.85
2023-05-19T11:50:16.680Z,7.40
2023-05-19T11:53:19.919Z,6.72
2023-05-19T11:56:22.167Z,8.00
2023-05-19T11:59:33.492Z,8.38
2023-05-19T12:02:37.934Z,7.50
2023-05-19T12:05:46.386Z,7.88
2023-05-19T12:08:51.404Z,8.63
2023-05-19T12:11:55.392Z,7.88
2023-05-19T12:14:59.105Z,7.28
2023-05-19T12:18:02.495Z,8.73
2023-05-19T12:21:05.346Z,7.60
2023-05-19T12:24:08.620Z,8.57
2023-05-19T12:27:18.521Z,7.38
2023-05-19T12:30:26.759Z,8.02
2023-05-19T12:33:28.729Z,7.35
2023-05-19T12:36:32.350Z,7.97
2023-05-19T12:39:34.350Z,8.52
2023-05-19T12:42:37.901Z,6.88
2023-05-19T12:45:42.676Z,7.45
2023-05-19T12:48:45.713Z,7.63
2023-05-19T12:51:52.437Z,7.63
2023-05-19T12:54:58.786Z,6.40
2023-05-19T12:58:07.197Z,7.22
2023-05-19T13:01:16.356Z,6.65
2023-05-19T13:04:18.660Z,7.28
2023-05-19T13:07:20.669Z,7.28
2023-05-19T13:10:23.096Z,6.70
2023-05-19T13:13:25.029Z,7.75
2023-05-19T13:16:29.490Z,6.45
2023-05-19T13:19:31.558Z,7.57
2023-05-19T13:22:33.547Z,6.43
2023-05-19T13:25:36.175Z,7.13
2023-05-19T13:28:37.996Z,5.65
2023-05-19T13:31:42.026Z,7.30
2023-05-19T13:34:43.916Z,6.90
2023-05-19T13:37:46.385Z,6.15
2023-05-19T13:40:48.598Z,6.70
2023-05-19T13:43:50.494Z,6.82
2023-05-19T13:46:53.967Z,7.13
2023-05-19T13:49:55.992Z,6.43
2023-05-19T13:52:57.952Z,5.90
2023-05-19T13:56:00.965Z,6.68
2023-05-19T13:59:04.128Z,7.07
2023-05-19T14:02:08.263Z,6.63
2023-05-19T14:05:10.482Z,6.53
2023-05-19T14:08:12.347Z,7.38
2023-05-19T14:11:17.975Z,6.25
2023-05-19T14:14:19.822Z,6.50
2023-05-19T14:17:23.054Z,7.65
2023-05-19T14:20:25.892Z,7.18
2023-05-19T14:23:30.450Z,6.60
2023-05-19T14:26:32.400Z,8.27
2023-05-19T14:29:34.667Z,7.93
2023-05-19T14:32:38.965Z,7.35
2023-05-19T14:35:41.097Z,6.05
2023-05-19T14:38:42.949Z,5.97
2023-05-19T14:41:45.432Z,6.45
2023-05-19T14:44:50.367Z,7.18
2023-05-19T14:47:53.854Z,6.40
2023-05-19T14:50:55.956Z,7.30
2023-05-19T14:53:57.863Z,6.85
2023-05-19T14:57:01.636Z,6.00
2023-05-19T15:00:04.192Z,6.85
2023-05-19T15:03:07.877Z,6.97
2023-05-19T15:06:10.859Z,6.90
2023-05-19T15:09:14.672Z,6.60
2023-05-19T15:12:17.459Z,7.47
2023-05-19T15:15:19.464Z,8.00
2023-05-19T15:18:22.772Z,7.43
2023-05-19T15:21:24.671Z,6.85
2023-05-19T15:24:27.262Z,7.80
2023-05-19T15:27:29.492Z,7.63
2023-05-19T15:30:31.358Z,7.22
2023-05-19T15:33:34.667Z,7.03
2023-05-19T15:36:36.700Z,7.20
2023-05-19T15:39:38.798Z,8.15
2023-05-19T15:42:41.332Z,6.57
2023-05-19T15:45:43.225Z,7.75
2023-05-19T15:48:46.547Z,7.22
2023-05-19T15:51:48.388Z,7.35
2023-05-19T15:54:50.250Z,7.57
2023-05-19T15:57:52.305Z,6.97
2023-05-19T16:00:54.282Z,7.38
2023-05-19T16:03:57.681Z,7.20
2023-05-19T16:06:59.653Z,7.53
2023-05-19T16:10:01.684Z,6.95
2023-05-19T16:13:04.314Z,7.75
2023-05-19T16:16:07.018Z,7.93
2023-05-19T16:19:10.521Z,7.90
2023-05-19T16:22:13.204Z,6.82
2023-05-19T16:25:15.241Z,6.88
2023-05-19T16:28:17.187Z,7.90
2023-05-19T16:31:19.253Z,7.70
2023-05-19T16:34:22.428Z,8.70
2023-05-19T16:37:25.188Z,8.02
2023-05-19T16:40:29.455Z,8.70
2023-05-19T16:43:34.026Z,7.93
2023-05-19T16:46:35.972Z,9.60
2023-05-19T16:49:40.889Z,9.18
2023-05-19T16:52:42.701Z,9.32
2023-05-19T16:55:45.098Z,9.68
2023-05-19T16:58:47.105Z,9.50
2023-05-19T17:01:49.139Z,9.00
2023-05-19T17:04:52.545Z,7.90
2023-05-19T17:07:55.169Z,8.52
2023-05-19T17:10:57.287Z,9.60
2023-05-19T17:13:59.555Z,9.60
2023-05-19T17:17:01.639Z,8.60
2023-05-19T17:20:07.117Z,10.27
2023-05-19T17:23:09.002Z,9.57
2023-05-19T17:26:10.831Z,9.77
2023-05-19T17:29:13.037Z,8.73
2023-05-19T17:32:14.837Z,8.98
2023-05-19T17:35:18.556Z,7.90
2023-05-19T17:38:20.996Z,8.95
2023-05-19T17:41:22.914Z,9.55
2023-05-19T17:44:25.304Z,9.13
2023-05-19T17:47:27.214Z,9.13
2023-05-19T17:50:30.501Z,9.60
2023-05-19T17:53:33.040Z,10.20
2023-05-19T17:56:40.650Z,11.43
2023-05-19T17:59:42.876Z,13.32
2023-05-19T18:02:45.446Z,12.00
2023-05-19T18:05:49.805Z,10.25
2023-05-19T18:08:53.337Z,11.57
2023-05-19T18:11:55.251Z,11.13
2023-05-19T18:14:57.334Z,12.15
2023-05-19T18:17:59.425Z,9.95
2023-05-19T18:21:03.302Z,9.98
2023-05-19T18:24:06.041Z,11.35
2023-05-19T18:27:09.138Z,10.32
2023-05-19T18:30:11.771Z,10.35
2023-05-19T18:33:13.648Z,10.18
2023-05-19T18:36:17.629Z,10.45
2023-05-19T18:39:19.549Z,12.02
2023-05-19T18:42:22.077Z,12.00
2023-05-19T18:45:23.926Z,11.82
2023-05-19T18:48:25.925Z,12.65
2023-05-19T18:51:29.947Z,12.38
2023-05-19T18:54:32.634Z,11.55
2023-05-19T18:57:34.866Z,11.95
2023-05-19T19:00:37.121Z,11.88
2023-05-19T19:03:38.971Z,12.48
2023-05-19T19:06:43.793Z,11.60
2023-05-19T19:09:46.818Z,12.80
2023-05-19T19:12:48.687Z,11.98
2023-05-19T19:15:50.608Z,11.25
2023-05-19T19:18:52.891Z,12.65
2023-05-19T19:21:56.094Z,11.70
2023-05-19T19:24:58.780Z,12.23
2023-05-19T19:28:01.630Z,12.70
2023-05-19T19:31:03.488Z,13.40
2023-05-19T19:34:09.204Z,12.80
2023-05-19T19:37:14.510Z,12.77
2023-05-19T19:40:16.773Z,13.30
2023-05-19T19:43:18.795Z,13.00
2023-05-19T19:46:20.760Z,12.15
2023-05-19T19:49:22.673Z,11.88
2023-05-19T19:52:26.284Z,13.50
2023-05-19T19:55:30.708Z,13.57
2023-05-19T19:58:32.621Z,12.55
2023-05-19T20:01:34.544Z,14.10
2023-05-19T20:04:36.727Z,12.63
2023-05-19T20:07:39.973Z,16.80
2023-05-19T20:10:42.616Z,13.00
2023-05-19T20:13:44.550Z,14.82
2023-05-19T20:16:46.898Z,12.50
2023-05-19T20:19:48.984Z,15.00
2023-05-19T20:22:53.033Z,12.75
2023-05-19T20:26:10.700Z,13.32
2023-05-19T20:29:14.154Z,12.05
2023-05-19T20:32:16.054Z,12.60
2023-05-19T20:35:18.183Z,12.25
2023-05-19T20:38:22.014Z,11.98
2023-05-19T20:41:23.875Z,14.07
2023-05-19T20:44:25.942Z,12.52
2023-05-19T20:47:30.383Z,11.77
2023-05-19T20:50:32.819Z,10.40
2023-05-19T20:53:36.912Z,11.05
2023-05-19T20:56:38.813Z,11.57
2023-05-19T20:59:40.947Z,11.65
2023-05-19T21:02:44.400Z,11.85
2023-05-19T21:05:46.450Z,12.57
2023-05-19T21:08:50.137Z,11.88
2023-05-19T21:11:55.152Z,12.52
2023-05-19T21:14:57.040Z,11.07
2023-05-19T21:17:59.021Z,11.90
2023-05-19T21:21:02.911Z,13.55
2023-05-19T21:24:09.665Z,13.65
2023-05-19T21:27:11.526Z,12.95
2023-05-19T21:30:13.849Z,13.63
2023-05-19T21:33:16.087Z,13.75
2023-05-19T21:36:18.507Z,13.07
2023-05-19T21:39:21.724Z,14.00
2023-05-19T21:42:24.484Z,13.38
2023-05-19T21:45:26.351Z,12.20
2023-05-19T21:48:30.165Z,13.25
2023-05-19T21:51:32.182Z,12.43
2023-05-19T21:54:36.235Z,11.82
2023-05-19T21:57:38.110Z,12.55
2023-05-19T22:00:40.656Z,12.63
2023-05-19T22:03:42.543Z,11.57
2023-05-19T22:06:45.665Z,10.63
2023-05-19T22:09:49.037Z,11.43
2023-05-19T22:12:51.377Z,10.82
2023-05-19T22:15:53.264Z,11.88
2023-05-19T22:18:55.609Z,10.40
2023-05-19T22:22:09.738Z,9.27
2023-05-19T22:25:16.657Z,9.32
2023-05-19T22:28:18.546Z,10.55
2023-05-19T22:31:21.639Z,9.75
2023-05-19T22:34:23.548Z,10.40
2023-05-19T22:37:27.202Z,10.13
2023-05-19T22:40:30.409Z,9.13
2023-05-19T22:43:34.729Z,9.77
2023-05-19T22:46:37.397Z,10.32
2023-05-19T22:49:39.487Z,10.48
2023-05-19T22:52:42.321Z,10.45
2023-05-19T22:55:45.705Z,10.52
2023-05-19T22:58:47.527Z,8.77
2023-05-19T23:01:50.324Z,9.82
2023-05-19T23:04:52.195Z,8.80
2023-05-19T23:07:54.228Z,9.90
2023-05-19T23:11:03.397Z,9.50
2023-05-19T23:14:05.736Z,9.52
2023-05-19T23:17:08.280Z,10.35
2023-05-19T23:20:11.795Z,10.38
2023-05-19T23:23:13.602Z,9.40
2023-05-19T23:26:17.600Z,11.05
2023-05-19T23:29:19.557Z,9.60
2023-05-19T23:32:22.131Z,8.80
2023-05-19T23:35:24.046Z,9.40
2023-05-19T23:38:27.103Z,10.38
2023-05-19T23:41:30.485Z,10.43
2023-05-19T23:44:32.462Z,10.55
2023-05-19T23:47:34.358Z,9.88
2023-05-19T23:50:37.135Z,8.95
2023-05-19T23:53:39.220Z,10.20
2023-05-19T23:56:43.467Z,10.25
2023-05-19T23:59:45.383Z,9.98
